Time;durP1;ratioP1;P1;durP2;ratioP2;P2;SDS_P1;SDS_P2;PMS_P1;PMS_P2;Temp;Humidity;BMP_temperature;BMP_pressure;BME280_temperature;BME280_humidity;BME280_pressure;Samples;Min_cycle;Max_cycle;Signal;HPM_P1;HPM_P2
2023/07/04 00:00:12;;;;;;;15.43;10.55;;;;;;;16.93;61.84;98281.97;5035041;28;20099;-81
2023/07/04 00:02:37;;;;;;;16.08;9.65;;;;;;;16.91;62.49;98303.84;5035803;28;20868;-80
2023/07/04 00:05:03;;;;;;;16.30;9.38;;;;;;;16.80;62.82;98298.97;5027794;28;20032;-80
2023/07/04 00:07:31;;;;;;;16.05;9.80;;;;;;;16.92;62.27;98310.06;5022464;28;20384;-80
2023/07/04 00:09:57;;;;;;;13.88;8.73;;;;;;;16.93;61.89;98309.75;5034543;28;20040;-80
2023/07/04 00:12:22;;;;;;;19.33;8.73;;;;;;;16.84;61.70;98298.06;5013603;28;20029;-80
2023/07/04 00:14:48;;;;;;;15.25;9.73;;;;;;;16.71;62.67;98306.19;5012977;28;20138;-80
2023/07/04 00:17:13;;;;;;;24.48;10.30;;;;;;;16.66;62.36;98298.22;5028702;28;20025;-80
2023/07/04 00:19:39;;;;;;;15.65;9.93;;;;;;;16.73;62.35;98294.00;5001359;28;20040;-80
2023/07/04 00:22:04;;;;;;;19.40;9.30;;;;;;;16.60;62.97;98307.50;5009982;28;20476;-80
2023/07/04 00:24:30;;;;;;;19.95;9.85;;;;;;;16.65;62.86;98302.78;5019888;28;20129;-80
2023/07/04 00:26:57;;;;;;;13.82;9.23;;;;;;;16.63;62.52;98320.34;5011586;28;20365;-80
2023/07/04 00:29:23;;;;;;;22.75;9.80;;;;;;;16.70;63.25;98308.09;5032382;28;20034;-80
2023/07/04 00:31:49;;;;;;;18.17;9.30;;;;;;;16.73;62.31;98318.25;5028140;28;20033;-80
2023/07/04 00:34:14;;;;;;;21.40;9.35;;;;;;;16.43;63.11;98325.03;5028867;28;20029;-80
2023/07/04 00:36:40;;;;;;;21.13;9.18;;;;;;;16.45;63.36;98320.13;5038846;28;20116;-80
2023/07/04 00:39:06;;;;;;;18.65;8.40;;;;;;;16.60;62.67;98327.13;5039361;28;20033;-80
2023/07/04 00:41:31;;;;;;;14.52;8.75;;;;;;;16.45;62.54;98320.13;5032259;28;21536;-80
2023/07/04 00:46:43;;;;;;;;;;;;;;;16.39;62.92;98321.34;5032136;28;20164;-80
2023/07/04 00:49:18;;;;;;;19.02;8.20;;;;;;;16.18;62.51;98281.63;5044792;28;19921;-80
2023/07/04 00:52:04;;;;;;;17.20;8.02;;;;;;;16.55;61.99;98321.06;5012327;28;20557;-80
2023/07/04 00:54:36;;;;;;;13.13;7.57;;;;;;;16.29;62.90;98316.13;5045203;28;20035;-80
2023/07/04 00:57:06;;;;;;;15.35;7.63;;;;;;;16.44;61.74;98305.09;5029411;28;20436;-80
2023/07/04 00:59:38;;;;;;;19.35;7.63;;;;;;;16.25;62.50;98298.97;5022479;28;20043;-80
2023/07/04 01:02:04;;;;;;;15.98;7.43;;;;;;;16.46;62.26;98305.59;5024275;28;20625;-80
2023/07/04 01:04:32;;;;;;;15.25;5.88;;;;;;;16.25;62.13;98301.66;5033746;28;20391;-80
2023/07/04 01:07:24;;;;;;;16.70;7.53;;;;;;;16.40;61.59;98293.28;5035252;28;20029;-80
2023/07/04 01:10:32;;;;;;;13.32;6.70;;;;;;;16.25;62.36;98307.03;5023952;28;20484;-80
2023/07/04 01:12:58;;;;;;;;;;;;;;;16.39;62.15;98317.84;5027578;28;20128;-80
2023/07/04 01:15:24;;;;;;;12.07;6.63;;;;;;;16.36;61.87;98300.38;5033855;28;20297;-80
2023/07/04 01:17:53;;;;;;;11.68;6.20;;;;;;;16.47;61.73;98320.63;5033556;28;20037;-80
2023/07/04 01:20:19;;;;;;;14.10;7.47;;;;;;;16.31;61.37;98297.78;5025729;28;20029;-80
2023/07/04 01:22:50;;;;;;;15.23;6.85;;;;;;;16.62;61.33;98324.16;5027773;28;20029;-80
2023/07/04 01:25:50;;;;;;;20.05;6.93;;;;;;;16.53;61.39;98316.00;5037945;28;20397;-80
2023/07/04 01:28:17;;;;;;;18.33;6.30;;;;;;;16.36;61.17;98313.84;5024466;28;20120;-80
2023/07/04 01:30:45;;;;;;;13.60;6.07;;;;;;;16.36;61.79;98318.41;5030097;28;20044;-80
2023/07/04 01:33:13;;;;;;;15.07;6.28;;;;;;;16.39;61.21;98302.47;5029275;28;20025;-80
2023/07/04 01:35:39;;;;;;;15.32;6.85;;;;;;;16.56;61.52;98322.66;5030091;28;20028;-80
2023/07/04 01:38:06;;;;;;;15.93;7.18;;;;;;;16.52;61.44;98322.47;5031208;28;20104;-80
2023/07/04 01:40:34;;;;;;;12.15;6.47;;;;;;;16.46;61.71;98324.44;5032347;28;20033;-80
2023/07/04 01:43:02;;;;;;;13.63;6.97;;;;;;;16.45;61.66;98319.31;5033138;28;20025;-80
2023/07/04 01:45:28;;;;;;;16.33;6.68;;;;;;;16.38;61.93;98327.03;5037397;28;20040;-80
2023/07/04 01:47:53;;;;;;;16.70;7.53;;;;;;;16.42;61.27;98328.03;5032280;28;20488;-80
2023/07/04 01:50:19;;;;;;;13.95;7.25;;;;;;;16.30;62.11;98333.91;5036143;28;20041;-80
2023/07/04 01:52:44;;;;;;;11.60;6.18;;;;;;;16.30;61.97;98316.94;5036664;28;20037;-80
2023/07/04 01:55:12;;;;;;;14.95;6.40;;;;;;;16.43;61.68;98333.09;5009498;28;20033;-80
2023/07/04 01:57:38;;;;;;;15.70;7.05;;;;;;;16.22;62.15;98321.13;5053989;28;20120;-80
2023/07/04 02:00:06;;;;;;;15.35;7.78;;;;;;;16.03;62.62;98319.59;5020326;28;20044;-80
2023/07/04 02:02:31;;;;;;;14.88;7.75;;;;;;;16.19;62.40;98321.72;5039960;28;20379;-81
2023/07/04 02:04:57;;;;;;;17.80;6.80;;;;;;;16.14;62.33;98318.31;5032905;28;20112;-80
2023/07/04 02:07:23;;;;;;;15.60;6.38;;;;;;;16.04;62.67;98316.59;5020732;28;20447;-80
2023/07/04 02:09:50;;;;;;;11.52;6.45;;;;;;;16.09;62.83;98332.69;5043915;28;20090;-80
2023/07/04 02:12:16;;;;;;;17.33;6.03;;;;;;;16.05;62.51;98326.28;5031083;28;20083;-80
2023/07/04 02:14:41;;;;;;;12.18;6.50;;;;;;;16.10;62.65;98338.84;5013184;28;20366;-80
2023/07/04 02:17:07;;;;;;;12.73;6.25;;;;;;;16.11;62.85;98327.78;5031575;28;20022;-80
2023/07/04 02:19:32;;;;;;;15.07;6.30;;;;;;;16.10;62.10;98317.28;5030756;28;20095;-80
2023/07/04 02:21:58;;;;;;;14.02;6.15;;;;;;;16.25;62.17;98320.50;5016590;28;20040;-80
2023/07/04 02:24:23;;;;;;;14.95;5.75;;;;;;;16.15;61.96;98325.28;5010105;28;20073;-80
2023/07/04 02:26:49;;;;;;;15.27;5.93;;;;;;;16.09;62.48;98302.25;5038233;28;20393;-80
2023/07/04 02:29:14;;;;;;;12.57;5.00;;;;;;;15.92;62.72;98305.53;5027440;28;20034;-80
2023/07/04 02:31:39;;;;;;;12.77;5.82;;;;;;;16.19;62.40;98329.78;5037356;28;20033;-80
2023/07/04 02:34:05;;;;;;;11.70;5.55;;;;;;;16.22;62.44;98331.09;5031999;28;20131;-80
2023/07/04 02:36:30;;;;;;;13.63;5.80;;;;;;;16.09;62.63;98335.38;5009052;28;20048;-80
2023/07/04 02:38:55;;;;;;;10.88;5.82;;;;;;;16.15;62.18;98336.88;5016352;28;20408;-80
2023/07/04 02:41:21;;;;;;;13.07;5.70;;;;;;;15.87;63.62;98335.22;5039271;28;20029;-80
2023/07/04 02:43:46;;;;;;;21.85;6.35;;;;;;;16.13;62.93;98316.72;5031065;28;20037;-80
2023/07/04 02:46:12;;;;;;;10.10;5.40;;;;;;;16.14;62.37;98323.72;5008598;28;20576;-80
2023/07/04 02:48:37;;;;;;;14.30;5.78;;;;;;;16.09;63.10;98326.47;5028954;28;20026;-80
2023/07/04 02:51:03;;;;;;;14.82;5.05;;;;;;;16.10;62.92;98326.19;5011675;28;20125;-80
2023/07/04 02:53:28;;;;;;;10.38;5.40;;;;;;;16.02;63.12;98316.09;5035883;28;20066;-80
2023/07/04 02:55:55;;;;;;;11.70;6.13;;;;;;;16.08;62.72;98324.88;5044142;28;20346;-80
2023/07/04 02:58:21;;;;;;;14.32;6.38;;;;;;;16.04;62.57;98321.97;5025957;28;20037;-80
2023/07/04 03:00:48;;;;;;;17.17;5.32;;;;;;;16.07;63.10;98328.69;5014279;28;20072;-80
2023/07/04 03:03:14;;;;;;;11.82;5.35;;;;;;;16.00;62.79;98318.28;5037914;28;20040;-81
2023/07/04 03:05:39;;;;;;;13.50;5.45;;;;;;;15.98;62.94;98338.53;5025773;28;20034;-80
2023/07/04 03:08:05;;;;;;;11.85;5.82;;;;;;;15.86;62.82;98319.38;5031772;28;20061;-80
2023/07/04 03:10:31;;;;;;;13.43;5.55;;;;;;;15.96;63.35;98329.94;5029485;28;20025;-80
2023/07/04 03:12:56;;;;;;;11.98;5.60;;;;;;;15.49;64.46;98325.59;5048462;28;20477;-80
2023/07/04 03:15:22;;;;;;;9.07;5.85;;;;;;;15.73;64.05;98345.13;5026397;28;20113;-80
2023/07/04 03:17:48;;;;;;;13.82;5.60;;;;;;;15.77;64.49;98346.13;5027638;28;20037;-80
2023/07/04 03:20:14;;;;;;;13.23;5.88;;;;;;;15.80;63.59;98326.72;5026343;28;20021;-80
2023/07/04 03:22:41;;;;;;;11.80;6.35;;;;;;;15.87;64.06;98350.56;5025919;28;20064;-79
2023/07/04 03:25:06;;;;;;;11.90;5.35;;;;;;;15.74;63.82;98357.50;5029575;28;20037;-80
2023/07/04 03:27:35;;;;;;;10.50;5.32;;;;;;;15.48;64.87;98343.63;5027467;28;20469;-80
2023/07/04 03:30:00;;;;;;;12.75;5.57;;;;;;;15.63;64.51;98362.25;5026521;28;20025;-80
2023/07/04 03:32:25;;;;;;;17.25;6.15;;;;;;;15.74;64.51;98361.00;5027434;28;20048;-80
2023/07/04 03:34:51;;;;;;;14.15;5.10;;;;;;;15.78;64.09;98361.19;5032203;28;20037;-80
2023/07/04 03:37:16;;;;;;;14.40;5.88;;;;;;;15.74;64.35;98361.00;5027297;28;20033;-80
2023/07/04 03:39:41;;;;;;;13.02;5.28;;;;;;;15.61;64.73;98339.41;5042487;28;20041;-80
2023/07/04 03:42:07;;;;;;;15.77;5.95;;;;;;;15.68;65.15;98370.22;5027896;28;20044;-80
2023/07/04 03:44:32;;;;;;;14.18;5.63;;;;;;;15.74;64.96;98362.88;5029994;28;20045;-80
2023/07/04 03:46:58;;;;;;;9.68;5.45;;;;;;;15.85;64.49;98372.38;5030988;28;20503;-80
2023/07/04 03:49:23;;;;;;;12.25;6.10;;;;;;;15.70;64.52;98349.19;5014463;28;20095;-80
2023/07/04 03:51:48;;;;;;;14.40;5.88;;;;;;;15.74;64.43;98369.06;5029325;28;20033;-80
2023/07/04 03:54:14;;;;;;;8.40;5.05;;;;;;;15.52;65.70;98379.63;5012702;28;20052;-80
2023/07/04 03:56:39;;;;;;;10.85;5.53;;;;;;;15.60;65.13;98384.34;5032757;28;20029;-80
2023/07/04 03:59:04;;;;;;;12.82;5.50;;;;;;;15.55;65.59;98367.47;5045365;28;20504;-80
2023/07/04 04:01:30;;;;;;;12.15;5.85;;;;;;;15.92;65.05;98386.28;5012883;28;20432;-80
2023/07/04 04:03:55;;;;;;;11.80;5.90;;;;;;;15.86;64.88;98390.13;5038012;28;20029;-80
2023/07/04 04:06:21;;;;;;;11.35;6.00;;;;;;;15.85;65.29;98399.28;5031082;28;20033;-80
2023/07/04 04:08:47;;;;;;;14.63;5.35;;;;;;;15.93;65.08;98404.00;5036372;28;20033;-80
2023/07/04 04:11:12;;;;;;;13.07;6.57;;;;;;;16.02;64.95;98404.94;5037410;28;20034;-80
2023/07/04 04:13:38;;;;;;;13.48;6.30;;;;;;;15.71;65.91;98406.50;5028644;28;20032;-80
2023/07/04 04:16:03;;;;;;;12.23;6.55;;;;;;;15.81;65.22;98394.78;5018080;28;20366;-80
2023/07/04 04:18:29;;;;;;;12.52;5.70;;;;;;;15.69;66.18;98389.84;5015216;28;20057;-81
2023/07/04 04:20:54;;;;;;;11.85;5.90;;;;;;;15.60;67.31;98405.84;5030342;28;20150;-80
2023/07/04 04:23:21;;;;;;;14.70;6.03;;;;;;;15.85;66.17;98411.94;5025709;28;20040;-81
2023/07/04 04:25:46;;;;;;;11.90;6.10;;;;;;;15.71;66.24;98401.13;5038872;28;20029;-80
2023/07/04 04:28:12;;;;;;;13.90;5.22;;;;;;;15.81;65.64;98409.06;5026015;28;20033;-80
2023/07/04 04:30:38;;;;;;;13.55;5.97;;;;;;;15.49;67.10;98392.84;5033861;28;20396;-80
2023/07/04 04:33:04;;;;;;;14.98;5.57;;;;;;;15.69;66.75;98420.25;5026354;28;20037;-80
2023/07/04 04:35:30;;;;;;;9.88;5.40;;;;;;;15.89;66.23;98429.09;5027154;28;20034;-80
2023/07/04 04:37:56;;;;;;;18.67;6.60;;;;;;;15.79;66.12;98419.31;5025416;28;20029;-80
2023/07/04 04:40:22;;;;;;;12.00;5.97;;;;;;;15.80;67.79;98426.28;5005765;28;20076;-80
2023/07/04 04:42:55;;;;;;;8.25;4.90;;;;;;;15.90;66.45;98436.88;5030472;28;20405;-80
2023/07/04 04:45:21;;;;;;;12.82;5.55;;;;;;;16.06;65.47;98419.41;5023519;28;20029;-81
2023/07/04 04:47:52;;;;;;;20.48;6.72;;;;;;;16.18;66.02;98441.31;5028309;28;20390;-80
2023/07/04 04:50:25;;;;;;;11.40;5.80;;;;;;;16.06;66.33;98432.06;5048214;28;20029;-80
2023/07/04 04:52:51;;;;;;;11.32;5.53;;;;;;;16.09;67.56;98451.13;5000210;28;20116;-80
2023/07/04 04:55:18;;;;;;;11.15;5.05;;;;;;;16.18;66.51;98454.78;5031485;28;20033;-80
2023/07/04 04:57:43;;;;;;;10.73;5.70;;;;;;;16.42;65.36;98439.25;5029284;28;20025;-80
2023/07/04 05:00:10;;;;;;;16.63;6.07;;;;;;;16.45;65.74;98448.63;5009727;28;20389;-80
2023/07/04 05:02:36;;;;;;;14.32;4.97;;;;;;;16.43;65.46;98453.53;5029117;28;20050;-80
2023/07/04 05:05:04;;;;;;;11.70;5.55;;;;;;;16.38;65.60;98435.56;5035950;28;20638;-81
2023/07/04 05:07:33;;;;;;;13.13;5.30;;;;;;;16.41;65.30;98444.94;5012404;28;20107;-81
2023/07/04 05:09:59;;;;;;;15.75;6.35;;;;;;;16.44;65.17;98455.94;5027744;28;20036;-80
2023/07/04 05:12:25;;;;;;;12.73;5.78;;;;;;;16.27;66.04;98450.28;5035436;28;20025;-80
2023/07/04 05:14:50;;;;;;;26.15;5.72;;;;;;;16.46;66.01;98464.53;5032254;28;20128;-80
2023/07/04 05:17:16;;;;;;;24.25;6.90;;;;;;;16.26;66.00;98454.09;5020986;28;20029;-80
2023/07/04 05:19:42;;;;;;;12.07;5.57;;;;;;;16.41;66.14;98458.41;5033212;28;20037;-81
2023/07/04 05:22:08;;;;;;;11.65;5.03;;;;;;;16.33;66.74;98446.44;5026343;28;20444;-80
2023/07/04 05:24:34;;;;;;;16.05;5.40;;;;;;;16.37;66.38;98462.78;5029407;28;20029;-80
2023/07/04 05:26:59;;;;;;;13.65;5.32;;;;;;;16.38;66.65;98462.50;5022761;28;20067;-80
2023/07/04 05:29:25;;;;;;;16.55;6.50;;;;;;;16.37;66.18;98449.31;5026959;28;20146;-80
2023/07/04 05:31:51;;;;;;;14.80;4.75;;;;;;;16.54;65.90;98456.88;5041417;28;20029;-81
2023/07/04 05:34:16;;;;;;;16.20;5.85;;;;;;;16.58;65.94;98455.19;5032084;28;20361;-80
2023/07/04 05:36:42;;;;;;;8.43;4.63;;;;;;;16.65;65.52;98460.97;5028957;28;20353;-80
2023/07/04 05:39:08;;;;;;;12.93;5.53;;;;;;;16.41;66.09;98461.91;5030182;28;20022;-80
2023/07/04 05:41:35;;;;;;;15.52;6.05;;;;;;;16.45;65.67;98449.44;5036324;28;20469;-80
2023/07/04 05:44:03;;;;;;;16.65;5.50;;;;;;;16.68;65.16;98455.00;5012687;28;20030;-81
2023/07/04 05:46:29;;;;;;;15.50;5.82;;;;;;;16.67;64.78;98451.50;5029073;28;20066;-80
2023/07/04 05:48:55;;;;;;;15.43;5.38;;;;;;;16.64;65.56;98443.22;5018900;28;20040;-80
2023/07/04 05:51:21;;;;;;;11.88;5.57;;;;;;;16.75;65.34;98458.13;5016357;28;20037;-82
2023/07/04 05:53:53;;;;;;;17.38;5.28;;;;;;;16.64;65.58;98457.50;5009404;28;20036;-81
2023/07/04 05:56:26;;;;;;;11.65;4.93;;;;;;;16.85;65.11;98468.72;5033754;28;20076;-80
2023/07/04 05:58:57;;;;;;;12.25;5.22;;;;;;;16.72;64.58;98442.53;5031403;28;20480;-81
2023/07/04 06:01:23;;;;;;;19.88;5.95;;;;;;;16.91;64.90;98478.28;5039360;28;20053;-81
2023/07/04 06:03:49;;;;;;;15.75;5.03;;;;;;;16.72;64.74;98454.13;5041250;28;20025;-81
2023/07/04 06:06:36;;;;;;;12.65;5.63;;;;;;;16.83;65.12;98473.59;5036151;28;20034;-81
2023/07/04 06:09:04;;;;;;;14.45;5.47;;;;;;;16.85;65.33;98482.19;5054297;28;20057;-82
2023/07/04 06:11:39;;;;;;;9.68;4.82;;;;;;;16.92;64.63;98480.72;5021740;28;20037;-82
2023/07/04 06:14:09;;;;;;;12.45;4.80;;;;;;;16.98;64.50;98481.41;5043980;28;20030;-81
2023/07/04 06:16:40;;;;;;;9.02;5.30;;;;;;;16.86;64.39;98456.84;5027814;28;20436;-82
2023/07/04 06:19:05;;;;;;;11.50;5.18;;;;;;;16.79;63.98;98449.16;5028141;28;20140;-80
2023/07/04 06:21:31;;;;;;;12.25;5.18;;;;;;;17.06;64.22;98494.97;4997761;28;20116;-80
2023/07/04 06:23:57;;;;;;;9.88;4.75;;;;;;;17.03;64.26;98497.50;5028689;28;20041;-80
2023/07/04 06:26:27;;;;;;;15.30;5.40;;;;;;;17.17;64.05;98492.88;5025791;28;20120;-80
2023/07/04 06:28:52;;;;;;;17.00;5.15;;;;;;;17.08;64.22;98489.31;5033564;28;20030;-82
2023/07/04 06:31:18;;;;;;;14.20;5.25;;;;;;;16.90;63.95;98482.91;5033643;28;20082;-81
2023/07/04 06:33:43;;;;;;;12.48;5.05;;;;;;;17.00;64.14;98492.69;4995133;28;20652;-81
2023/07/04 06:36:11;;;;;;;7.97;4.72;;;;;;;17.00;63.60;98506.16;5031381;28;20041;-81
2023/07/04 06:38:37;;;;;;;15.23;5.53;;;;;;;16.99;63.84;98502.66;5024997;28;20393;-81
2023/07/04 06:41:22;;;;;;;11.95;5.18;;;;;;;16.81;65.29;98495.47;5036122;28;20033;-80
2023/07/04 06:43:54;;;;;;;15.45;5.05;;;;;;;16.89;64.46;98500.16;5033169;28;20076;-82
2023/07/04 06:46:26;;;;;;;16.35;5.95;;;;;;;16.62;64.60;98450.81;5045956;28;20144;-81
2023/07/04 06:49:07;;;;;;;17.08;5.50;;;;;;;16.97;63.80;98501.38;5043611;28;20044;-83
2023/07/04 06:51:37;;;;;;;14.32;5.93;;;;;;;16.97;64.11;98496.00;5047353;28;20085;-83
2023/07/04 06:54:10;;;;;;;13.93;5.97;;;;;;;16.91;63.64;98483.69;5040672;28;20029;-82
2023/07/04 06:56:37;;;;;;;10.70;5.00;;;;;;;16.88;63.93;98482.41;5054483;28;20077;-80
2023/07/04 06:59:08;;;;;;;11.13;5.38;;;;;;;17.02;64.13;98510.16;5036996;28;20029;-82
2023/07/04 07:01:38;;;;;;;13.52;5.38;;;;;;;17.04;63.67;98496.38;5042755;28;20030;-82
2023/07/04 07:04:07;;;;;;;19.90;5.47;;;;;;;17.19;63.12;98506.88;5045030;28;20116;-80
2023/07/04 07:06:33;;;;;;;12.98;5.32;;;;;;;17.14;63.62;98493.50;5029419;28;20041;-81
2023/07/04 07:08:58;;;;;;;11.05;5.78;;;;;;;17.22;63.23;98507.09;5015130;28;20029;-80
2023/07/04 07:11:24;;;;;;;8.65;4.72;;;;;;;17.04;63.47;98480.19;5034080;28;20377;-81
2023/07/04 07:13:50;;;;;;;12.10;5.05;;;;;;;17.14;63.41;98488.91;5035087;28;20403;-81
2023/07/04 07:16:24;;;;;;;15.82;6.30;;;;;;;17.45;62.57;98499.09;5015488;28;20124;-80
2023/07/04 07:18:52;;;;;;;14.20;6.28;;;;;;;17.58;62.57;98509.09;5024345;28;20028;-81
2023/07/04 07:21:20;;;;;;;8.40;4.75;;;;;;;17.40;62.80;98505.38;5033591;28;20021;-81
2023/07/04 07:23:47;;;;;;;11.02;5.30;;;;;;;17.50;62.97;98516.00;5006153;28;20033;-81
2023/07/04 07:26:17;;;;;;;16.92;5.20;;;;;;;17.54;62.65;98516.22;5026407;28;20392;-81
2023/07/04 07:28:43;;;;;;;11.10;5.53;;;;;;;17.66;62.23;98525.38;5025340;28;20028;-81
2023/07/04 07:31:12;;;;;;;9.82;4.90;;;;;;;17.73;61.60;98527.69;5006720;28;20108;-81
2023/07/04 07:33:41;;;;;;;9.85;5.38;;;;;;;17.70;61.62;98529.06;5032992;28;20036;-81
2023/07/04 07:36:13;;;;;;;14.23;5.60;;;;;;;17.82;61.42;98533.97;5039452;28;20124;-82
2023/07/04 07:38:39;;;;;;;11.45;4.95;;;;;;;17.82;61.17;98531.28;5038438;28;20365;-82
2023/07/04 07:41:05;;;;;;;12.25;4.45;;;;;;;17.79;61.07;98526.47;5030285;28;20060;-82
2023/07/04 07:43:31;;;;;;;13.52;5.35;;;;;;;17.64;61.46;98535.69;5031346;28;20036;-81
2023/07/04 07:45:56;;;;;;;9.70;5.38;;;;;;;17.81;62.06;98530.47;5032579;28;20033;-81
2023/07/04 07:48:22;;;;;;;10.77;5.75;;;;;;;17.89;60.84;98518.94;5048554;28;20059;-81
2023/07/04 07:50:48;;;;;;;12.30;5.95;;;;;;;18.07;60.27;98519.09;5033233;28;20528;-82
2023/07/04 07:53:14;;;;;;;16.88;6.53;;;;;;;17.86;61.00;98495.25;5042817;28;20027;-81
2023/07/04 07:55:40;;;;;;;14.82;5.40;;;;;;;17.94;61.07;98508.03;5041352;28;20485;-81
2023/07/04 07:58:05;;;;;;;10.98;6.25;;;;;;;17.72;61.23;98524.16;5026001;28;20036;-82
2023/07/04 08:00:30;;;;;;;11.98;5.13;;;;;;;17.60;61.89;98525.78;4997143;28;20029;-81
2023/07/04 08:02:56;;;;;;;11.63;5.53;;;;;;;17.77;61.47;98524.06;5036079;28;20053;-81
2023/07/04 08:05:22;;;;;;;10.95;5.38;;;;;;;17.71;61.36;98498.25;5032061;28;20095;-81
2023/07/04 08:07:47;;;;;;;11.18;5.68;;;;;;;17.81;61.26;98519.66;5029393;28;20029;-81
2023/07/04 08:10:14;;;;;;;14.57;6.65;;;;;;;17.92;61.06;98534.53;5015730;28;20560;-81
2023/07/04 08:12:39;;;;;;;12.93;5.38;;;;;;;17.99;61.32;98528.72;5023818;28;20106;-81
2023/07/04 08:15:05;;;;;;;9.40;5.53;;;;;;;18.02;60.97;98530.03;5031504;28;20040;-81
2023/07/04 08:17:30;;;;;;;10.48;6.15;;;;;;;17.94;60.98;98529.63;5040016;28;20026;-81
2023/07/04 08:19:56;;;;;;;13.23;5.68;;;;;;;18.10;60.59;98526.59;5001793;28;20033;-81
2023/07/04 08:22:21;;;;;;;13.32;5.53;;;;;;;18.01;60.33;98512.22;5012300;28;20469;-81
2023/07/04 08:24:46;;;;;;;10.55;5.28;;;;;;;18.17;59.85;98516.16;5031358;28;20926;-81
2023/07/04 08:27:12;;;;;;;18.35;6.03;;;;;;;18.33;59.50;98517.38;4997415;28;20414;-81
2023/07/04 08:29:37;;;;;;;11.23;5.55;;;;;;;18.47;60.00;98531.69;5037956;28;20499;-81
2023/07/04 08:32:05;;;;;;;14.98;5.57;;;;;;;18.33;60.31;98522.78;5032238;28;20076;-81
2023/07/04 08:34:31;;;;;;;9.18;5.03;;;;;;;18.32;60.20;98540.94;5037360;28;20529;-81
2023/07/04 08:36:57;;;;;;;11.43;6.88;;;;;;;18.25;60.01;98534.34;5032079;28;20025;-82
2023/07/04 08:39:23;;;;;;;18.45;6.40;;;;;;;18.21;59.66;98536.88;5031211;28;20029;-82
2023/07/04 08:42:02;;;;;;;11.63;5.45;;;;;;;18.31;60.10;98525.00;5030066;28;20116;-81
2023/07/04 08:44:42;;;;;;;9.63;5.93;;;;;;;18.51;59.29;98532.66;5015373;28;20552;-81
2023/07/04 08:47:10;;;;;;;10.95;6.20;;;;;;;18.55;59.65;98549.88;5023399;28;20032;-81
2023/07/04 08:49:58;;;;;;;10.27;5.65;;;;;;;18.51;59.12;98532.66;5037491;28;20025;-81
2023/07/04 08:52:39;;;;;;;11.75;5.50;;;;;;;18.48;59.00;98514.34;5035117;28;20036;-81
2023/07/04 08:55:10;;;;;;;9.88;4.85;;;;;;;18.57;58.82;98528.72;5025475;28;20382;-81
2023/07/04 08:57:42;;;;;;;12.13;5.75;;;;;;;18.51;58.96;98532.66;5027022;28;20026;-81
2023/07/04 09:00:14;;;;;;;9.60;5.57;;;;;;;18.57;58.50;98551.16;5029064;28;20048;-82
2023/07/04 09:03:17;;;;;;;9.82;5.15;;;;;;;18.45;59.39;98542.81;5027797;28;20033;-81
2023/07/04 09:06:20;;;;;;;8.57;6.18;;;;;;;18.57;58.64;98534.94;5032677;28;20032;-81
2023/07/04 09:08:45;;;;;;;10.30;5.47;;;;;;;18.76;58.87;98545.56;5037695;28;20480;-81
2023/07/04 09:11:12;;;;;;;9.73;6.00;;;;;;;18.67;58.54;98531.97;5035594;28;20062;-81
2023/07/04 09:13:41;;;;;;;12.98;5.72;;;;;;;18.79;58.53;98546.84;5029254;28;20079;-81
2023/07/04 09:16:29;;;;;;;10.50;5.35;;;;;;;18.96;57.80;98557.78;5029365;28;20056;-81
2023/07/04 09:18:59;;;;;;;12.40;6.55;;;;;;;19.11;58.99;98547.34;5028529;28;20087;-81
2023/07/04 09:21:26;;;;;;;9.63;5.07;;;;;;;19.15;58.14;98555.66;5014328;28;20116;-81
2023/07/04 09:23:54;;;;;;;7.78;5.38;;;;;;;18.96;57.94;98538.84;5032742;28;20116;-81
2023/07/04 09:26:26;;;;;;;8.30;6.00;;;;;;;18.93;57.97;98556.50;5028915;28;20026;-81
2023/07/04 09:28:54;;;;;;;9.80;5.95;;;;;;;18.99;57.75;98549.84;5024827;28;20434;-81
2023/07/04 09:31:29;;;;;;;10.15;5.80;;;;;;;19.25;57.46;98542.63;5030770;28;20037;-82
2023/07/04 09:33:55;;;;;;;10.20;6.00;;;;;;;19.37;58.29;98556.41;5032306;28;20112;-81
2023/07/04 09:36:25;;;;;;;13.25;5.90;;;;;;;19.38;56.72;98540.97;5028120;28;20124;-81
2023/07/04 09:38:58;;;;;;;10.45;5.78;;;;;;;19.56;56.94;98561.59;5033815;28;20404;-82
2023/07/04 09:41:31;;;;;;;13.15;6.03;;;;;;;19.37;56.79;98551.00;5029114;28;20127;-81
2023/07/04 09:44:14;;;;;;;9.45;5.68;;;;;;;19.42;56.13;98563.59;5012106;28;20551;-82
2023/07/04 09:46:46;;;;;;;17.85;6.15;;;;;;;19.55;55.76;98553.78;5030904;28;20095;-81
2023/07/04 09:49:38;;;;;;;9.95;5.68;;;;;;;19.65;55.92;98556.19;5025172;28;20405;-81
2023/07/04 09:52:09;;;;;;;9.75;5.60;;;;;;;19.51;57.49;98559.00;5028545;28;20423;-82
2023/07/04 09:54:37;;;;;;;10.52;6.03;;;;;;;19.67;56.19;98559.38;5032735;28;20020;-82
2023/07/04 09:57:18;;;;;;;10.18;5.80;;;;;;;19.84;55.80;98564.84;5033053;28;20531;-82
2023/07/04 09:59:44;;;;;;;8.93;5.93;;;;;;;19.68;55.67;98544.75;5031530;28;20027;-82
2023/07/04 10:02:25;;;;;;;14.18;6.03;;;;;;;19.74;55.99;98554.31;5014858;28;20765;-81
2023/07/04 10:04:52;;;;;;;15.18;6.35;;;;;;;19.87;55.65;98550.66;5035497;28;20037;-81
2023/07/04 10:07:22;;;;;;;7.88;5.53;;;;;;;19.96;55.40;98546.84;5014759;28;20043;-81
2023/07/04 10:10:01;;;;;;;14.02;6.25;;;;;;;20.06;55.28;98537.63;5049500;28;20068;-82
2023/07/04 10:12:31;;;;;;;9.95;5.40;;;;;;;20.34;54.80;98530.81;5030433;28;20120;-81
2023/07/04 10:14:58;;;;;;;8.65;6.47;;;;;;;20.41;54.41;98541.97;5039580;28;20036;-81
2023/07/04 10:17:27;;;;;;;7.68;5.50;;;;;;;20.48;54.81;98546.91;5007979;28;20049;-81
2023/07/04 10:19:56;;;;;;;12.82;5.68;;;;;;;20.30;55.00;98521.72;5036380;28;20037;-81
2023/07/04 10:22:31;;;;;;;11.75;6.10;;;;;;;20.29;54.63;98517.41;5016239;28;20527;-81
2023/07/04 10:24:58;;;;;;;11.52;5.88;;;;;;;20.20;54.71;98519.31;5043139;28;20048;-81
2023/07/04 10:27:35;;;;;;;10.80;6.65;;;;;;;20.47;54.97;98520.91;5032924;28;20045;-81
2023/07/04 10:30:05;;;;;;;13.38;5.80;;;;;;;20.42;53.75;98532.72;5031869;28;20033;-82
2023/07/04 10:32:39;;;;;;;9.38;6.30;;;;;;;20.51;53.71;98530.03;5049773;28;20508;-81
2023/07/04 10:35:07;;;;;;;10.80;6.25;;;;;;;20.44;53.09;98529.69;5030374;28;20164;-82
2023/07/04 10:37:36;;;;;;;9.68;5.53;;;;;;;20.61;53.15;98540.53;5031292;28;20351;-81
2023/07/04 10:40:07;;;;;;;10.93;5.50;;;;;;;20.80;53.37;98544.47;5035866;28;20035;-81
2023/07/04 10:42:54;;;;;;;12.20;5.93;;;;;;;20.79;53.46;98537.44;5028971;28;20029;-81
2023/07/04 10:45:23;;;;;;;10.70;6.15;;;;;;;20.79;52.73;98542.88;5037967;28;21074;-81
2023/07/04 10:47:52;;;;;;;12.88;6.75;;;;;;;20.83;52.46;98527.56;5018937;28;20052;-81
2023/07/04 10:50:26;;;;;;;8.73;5.60;;;;;;;21.02;52.29;98540.75;5028149;28;20072;-81
2023/07/04 10:52:51;;;;;;;9.57;5.70;;;;;;;21.14;52.72;98548.25;5026711;28;20088;-81
2023/07/04 10:55:23;;;;;;;9.43;5.47;;;;;;;21.37;52.40;98542.25;4993054;28;20025;-81
2023/07/04 10:57:59;;;;;;;11.38;5.80;;;;;;;21.25;51.91;98535.94;5013784;28;20067;-81
2023/07/04 11:00:46;;;;;;;8.98;6.00;;;;;;;21.15;51.68;98538.97;5015043;28;20033;-81
2023/07/04 11:03:20;;;;;;;12.77;6.30;;;;;;;21.16;51.89;98535.97;5031964;28;20060;-81
2023/07/04 11:05:50;;;;;;;9.95;5.63;;;;;;;21.35;51.79;98558.09;5026575;28;20041;-81
2023/07/04 11:08:19;;;;;;;8.20;4.95;;;;;;;21.34;51.86;98551.06;5022285;28;20424;-82
2023/07/04 11:10:50;;;;;;;13.32;6.30;;;;;;;21.25;52.21;98550.28;5028235;28;20559;-82
2023/07/04 11:13:19;;;;;;;9.02;5.80;;;;;;;21.19;52.06;98529.88;5009325;28;20370;-82
2023/07/04 11:15:50;;;;;;;15.20;6.70;;;;;;;21.53;51.14;98532.47;5008485;28;20051;-82
2023/07/04 11:18:18;;;;;;;11.65;6.35;;;;;;;21.75;50.94;98519.72;5025318;28;20362;-82
2023/07/04 11:20:49;;;;;;;8.63;5.65;;;;;;;21.92;50.72;98512.25;5028749;28;20481;-82
2023/07/04 11:23:20;;;;;;;9.07;5.78;;;;;;;22.08;50.45;98513.25;5026669;28;20083;-82
2023/07/04 11:25:46;;;;;;;13.63;6.20;;;;;;;21.86;50.50;98505.44;5024991;28;20493;-82
2023/07/04 11:28:14;;;;;;;10.65;6.43;;;;;;;21.88;50.10;98516.78;5024749;28;20033;-81
2023/07/04 11:30:41;;;;;;;6.88;5.57;;;;;;;22.02;50.50;98501.00;5019263;28;20484;-81
2023/07/04 11:33:07;;;;;;;12.43;6.20;;;;;;;22.21;50.90;98495.88;5028403;28;20159;-82
2023/07/04 11:35:34;;;;;;;9.27;6.20;;;;;;;22.36;49.68;98503.44;5032079;28;20029;-81